Time;durP1;ratioP1;P1;durP2;ratioP2;P2;SDS_P1;SDS_P2;PMS_P1;PMS_P2;Temp;Humidity;BMP_temperature;BMP_pressure;BME280_temperature;BME280_humidity;BME280_pressure;Samples;Min_cycle;Max_cycle;Signal;HPM_P1;HPM_P2
2024/02/03 00:01:59;;;;;;;0.95;0.50;;;18.20;60.90;;;;;;6218925;23;20149;-86
2024/02/03 00:04:25;;;;;;;1.00;0.32;;;18.10;60.80;;;;;;6241237;22;20156;-86
2024/02/03 00:09:16;;;;;;;1.17;0.40;;;18.10;60.90;;;;;;6148826;23;20203;-84
2024/02/03 00:11:46;;;;;;;1.38;0.43;;;18.10;61.00;;;;;;6252951;22;20519;-85
2024/02/03 00:14:11;;;;;;;0.93;0.32;;;18.20;60.80;;;;;;6228319;23;20655;-86
2024/02/03 00:16:37;;;;;;;0.98;0.30;;;18.10;60.80;;;;;;6254299;22;20155;-86
2024/02/03 00:19:03;;;;;;;1.23;0.30;;;18.10;61.00;;;;;;6227768;23;20159;-85
2024/02/03 00:21:29;;;;;;;1.38;0.32;;;18.10;60.90;;;;;;6229115;23;20159;-85
2024/02/03 00:23:54;;;;;;;1.08;0.50;;;18.10;61.10;;;;;;6254103;22;20135;-85
2024/02/03 00:26:20;;;;;;;0.65;0.35;;;18.10;61.00;;;;;;6228214;22;20147;-86
2024/02/03 00:28:46;;;;;;;2.33;0.47;;;18.10;60.90;;;;;;6226147;23;20536;-86
2024/02/03 00:31:13;;;;;;;1.48;0.30;;;18.10;61.00;;;;;;6228235;23;20155;-86
2024/02/03 00:33:38;;;;;;;1.42;0.30;;;18.20;61.00;;;;;;6227357;22;20182;-86
2024/02/03 00:36:04;;;;;;;0.55;0.32;;;18.10;60.90;;;;;;6227218;23;20578;-86
2024/02/03 00:38:30;;;;;;;1.60;0.40;;;18.10;60.90;;;;;;6253757;22;20147;-85
2024/02/03 00:40:56;;;;;;;0.30;0.30;;;18.10;60.70;;;;;;6226824;23;20151;-85
2024/02/03 00:43:22;;;;;;;1.17;0.38;;;18.20;61.00;;;;;;6253253;22;20160;-85
2024/02/03 00:45:47;;;;;;;0.70;0.43;;;18.10;60.90;;;;;;6228306;23;20154;-86
2024/02/03 00:48:13;;;;;;;2.28;0.50;;;18.20;61.00;;;;;;6252787;22;20593;-86
2024/02/03 00:50:39;;;;;;;0.60;0.38;;;18.10;60.90;;;;;;6252559;22;20272;-86
2024/02/03 00:53:05;;;;;;;1.33;0.50;;;18.10;61.00;;;;;;6253272;22;20132;-85
2024/02/03 00:55:32;;;;;;;0.40;0.40;;;18.10;60.90;;;;;;6253680;22;20487;-87
2024/02/03 00:57:57;;;;;;;1.55;0.40;;;18.10;61.10;;;;;;6228106;22;20151;-86
2024/02/03 01:00:27;;;;;;;0.93;0.30;;;18.10;61.00;;;;;;6253698;22;20167;-85
2024/02/03 01:02:53;;;;;;;3.13;0.60;;;18.10;61.00;;;;;;6229180;22;20516;-86
2024/02/03 01:05:19;;;;;;;0.85;0.30;;;18.10;61.10;;;;;;6252873;22;20148;-85
2024/02/03 01:07:44;;;;;;;0.85;0.30;;;18.10;61.00;;;;;;6273583;22;20506;-85
2024/02/03 01:10:10;;;;;;;1.65;0.40;;;18.10;60.90;;;;;;6247752;22;20176;-85
2024/02/03 01:12:37;;;;;;;0.88;0.40;;;18.10;60.90;;;;;;6248031;22;20137;-85
2024/02/03 01:17:38;;;;;;;0.65;0.35;;;18.10;60.90;;;;;;6161704;22;20211;-85
2024/02/03 01:20:05;;;;;;;2.10;0.52;;;18.10;61.00;;;;;;6227619;22;20230;-85
2024/02/03 01:22:31;;;;;;;1.23;0.50;;;18.10;61.00;;;;;;6226617;23;20135;-87
2024/02/03 01:24:58;;;;;;;1.95;0.50;;;18.10;60.90;;;;;;6252234;22;20139;-85
2024/02/03 01:27:23;;;;;;;0.90;0.40;;;18.00;61.00;;;;;;6227454;23;20197;-85
2024/02/03 01:32:25;;;;;;;0.52;0.30;;;18.00;61.00;;;;;;6147629;23;20222;-86
2024/02/03 01:34:50;;;;;;;0.85;0.38;;;18.00;60.90;;;;;;6252615;22;20132;-85
2024/02/03 01:37:16;;;;;;;0.60;0.32;;;18.00;60.90;;;;;;6252129;22;20190;-85
2024/02/03 01:39:42;;;;;;;1.13;0.50;;;18.10;61.60;;;;;;6251758;22;20614;-85
2024/02/03 01:42:08;;;;;;;1.13;0.77;;;18.00;60.90;;;;;;6150241;23;20139;-86
2024/02/03 01:44:35;;;;;;;1.40;0.30;;;18.10;61.00;;;;;;6251963;22;20147;-85
2024/02/03 01:47:01;;;;;;;1.33;0.50;;;18.00;61.00;;;;;;6149453;22;20132;-86
2024/02/03 01:52:02;;;;;;;1.30;0.45;;;18.00;60.90;;;;;;6147505;23;20218;-85
2024/02/03 01:54:28;;;;;;;0.65;0.30;;;18.00;61.00;;;;;;6253648;22;20155;-84
2024/02/03 01:56:57;;;;;;;2.28;0.50;;;18.00;61.00;;;;;;6253188;22;20167;-85
2024/02/03 02:01:50;;;;;;;1.67;0.40;;;18.00;61.00;;;;;;6270727;22;20212;-85
2024/02/03 02:04:16;;;;;;;0.70;0.40;;;18.00;61.00;;;;;;6273478;22;20152;-86
2024/02/03 02:06:42;;;;;;;1.65;0.40;;;18.10;60.90;;;;;;6272969;22;20456;-86
2024/02/03 02:15:12;;;;;;;0.98;0.40;;;18.00;60.90;;;;;;6162921;22;20316;-84
2024/02/03 02:17:37;;;;;;;0.57;0.40;;;18.00;60.70;;;;;;6226345;23;20151;-85
2024/02/03 02:20:05;;;;;;;1.85;0.70;;;18.00;60.90;;;;;;6150782;22;20590;-85
2024/02/03 02:25:01;;;;;;;0.47;0.30;;;18.00;60.90;;;;;;6149660;22;20202;-85
2024/02/03 02:27:26;;;;;;;1.25;0.82;;;18.00;61.10;;;;;;6251322;22;20155;-85
2024/02/03 02:29:53;;;;;;;1.90;0.70;;;18.00;61.10;;;;;;6262147;22;20547;-85
2024/02/03 02:32:19;;;;;;;2.13;0.70;;;18.00;61.80;;;;;;6272665;22;20247;-85
2024/02/03 02:34:45;;;;;;;1.80;0.65;;;18.00;60.90;;;;;;6272803;22;20576;-85
2024/02/03 02:37:10;;;;;;;1.20;0.50;;;18.00;61.00;;;;;;6253300;22;20612;-84
2024/02/03 02:39:36;;;;;;;0.80;0.38;;;18.10;60.80;;;;;;6279754;22;20140;-85
2024/02/03 02:42:02;;;;;;;1.15;0.50;;;18.00;61.00;;;;;;6253394;22;20172;-87
2024/02/03 02:44:28;;;;;;;0.93;0.40;;;18.00;60.90;;;;;;6304511;22;20132;-86
2024/02/03 02:46:53;;;;;;;1.25;0.52;;;18.00;60.80;;;;;;6279011;22;20166;-85
2024/02/03 02:49:19;;;;;;;1.13;0.50;;;18.00;60.70;;;;;;6278761;22;20168;-85
2024/02/03 02:51:45;;;;;;;2.33;0.50;;;18.00;60.90;;;;;;6278290;22;20144;-85
2024/02/03 02:54:11;;;;;;;0.75;0.40;;;18.00;60.70;;;;;;6253472;22;20542;-85
2024/02/03 02:56:39;;;;;;;1.15;0.50;;;18.00;60.80;;;;;;6253566;22;20681;-85
2024/02/03 02:59:05;;;;;;;2.95;0.40;;;18.00;60.80;;;;;;6253008;22;20608;-85
2024/02/03 03:01:32;;;;;;;1.60;0.60;;;18.00;60.80;;;;;;6279048;22;20144;-87
2024/02/03 03:03:57;;;;;;;1.05;0.40;;;18.00;60.60;;;;;;6279518;22;20194;-85
2024/02/03 03:06:23;;;;;;;1.50;0.52;;;18.00;60.70;;;;;;6277695;22;20144;-86
2024/02/03 03:08:49;;;;;;;1.05;0.55;;;18.00;60.80;;;;;;6278742;22;20144;-85
2024/02/03 03:11:15;;;;;;;1.50;0.38;;;18.00;60.70;;;;;;6277628;22;20505;-86
2024/02/03 03:18:43;;;;;;;0.80;0.40;;;18.00;60.80;;;;;;6149654;23;20190;-85
2024/02/03 03:21:09;;;;;;;1.25;0.47;;;18.00;60.90;;;;;;6200438;23;20160;-85
2024/02/03 03:23:35;;;;;;;0.50;0.40;;;18.00;60.70;;;;;;6202194;23;20144;-85
2024/02/03 03:26:01;;;;;;;2.60;0.40;;;18.00;60.80;;;;;;6201198;23;20147;-86
2024/02/03 03:28:26;;;;;;;1.27;0.50;;;18.00;60.70;;;;;;6201997;23;20205;-85
2024/02/03 03:30:52;;;;;;;1.00;0.57;;;18.00;60.70;;;;;;6226724;22;20171;-85
2024/02/03 03:33:18;;;;;;;0.95;0.40;;;18.00;60.60;;;;;;6252765;22;20579;-85
2024/02/03 03:35:44;;;;;;;0.40;0.40;;;18.00;60.80;;;;;;6229487;22;20152;-85
2024/02/03 03:38:11;;;;;;;1.60;0.40;;;18.00;60.80;;;;;;6227453;22;20155;-85
2024/02/03 03:40:37;;;;;;;0.65;0.52;;;18.00;61.00;;;;;;6204138;22;20155;-85
2024/02/03 03:43:05;;;;;;;1.02;0.38;;;18.00;60.70;;;;;;6228254;22;20135;-85
2024/02/03 03:45:31;;;;;;;1.38;0.40;;;18.00;60.70;;;;;;6229130;23;20269;-84
2024/02/03 03:47:57;;;;;;;1.90;0.73;;;18.00;60.90;;;;;;6255393;22;20214;-85
2024/02/03 03:50:23;;;;;;;0.75;0.35;;;18.00;60.80;;;;;;6253054;22;20607;-85
2024/02/03 03:52:48;;;;;;;0.50;0.40;;;18.00;60.70;;;;;;6251699;22;20245;-86
2024/02/03 03:55:15;;;;;;;2.40;0.40;;;18.00;60.70;;;;;;6226502;23;20152;-84
2024/02/03 03:57:41;;;;;;;0.45;0.40;;;18.00;60.80;;;;;;6253727;22;20128;-85
2024/02/03 04:00:10;;;;;;;0.75;0.40;;;18.00;60.60;;;;;;6256455;22;20150;-85
2024/02/03 04:02:36;;;;;;;1.13;0.50;;;18.00;60.80;;;;;;6254899;22;20154;-85
2024/02/03 04:05:04;;;;;;;0.98;0.50;;;18.00;60.80;;;;;;6228882;22;20151;-85
2024/02/03 04:07:31;;;;;;;1.10;0.63;;;18.00;60.70;;;;;;6272673;22;20204;-86
2024/02/03 04:09:57;;;;;;;0.85;0.40;;;18.00;60.70;;;;;;6274444;22;20182;-85
2024/02/03 04:12:22;;;;;;;0.82;0.40;;;18.00;60.70;;;;;;6274103;22;20137;-85
2024/02/03 04:14:48;;;;;;;1.00;0.50;;;18.00;60.70;;;;;;6274897;22;20220;-85
2024/02/03 04:17:14;;;;;;;0.80;0.40;;;18.00;60.90;;;;;;6272908;22;20168;-85
2024/02/03 04:19:40;;;;;;;0.77;0.40;;;18.00;60.80;;;;;;6275406;22;20160;-85
2024/02/03 04:22:08;;;;;;;1.17;0.50;;;18.00;60.70;;;;;;6275223;22;20133;-85
2024/02/03 04:24:34;;;;;;;0.95;0.40;;;18.00;60.70;;;;;;6249212;22;20714;-84
2024/02/03 04:27:00;;;;;;;0.90;0.40;;;18.00;60.70;;;;;;6249822;22;20136;-84
2024/02/03 04:29:26;;;;;;;0.70;0.40;;;18.00;60.60;;;;;;6275103;22;20515;-85
2024/02/03 04:31:51;;;;;;;0.55;0.40;;;18.00;60.70;;;;;;6249778;22;20237;-85
2024/02/03 04:34:18;;;;;;;1.20;0.45;;;17.90;60.60;;;;;;6274883;22;20518;-85
2024/02/03 04:36:44;;;;;;;0.75;0.40;;;17.90;60.60;;;;;;6275380;22;20129;-85
2024/02/03 04:39:09;;;;;;;0.22;0.22;;;18.00;60.70;;;;;;6249343;22;20144;-86
2024/02/03 04:41:35;;;;;;;1.25;0.60;;;18.00;60.80;;;;;;6274248;22;20133;-85
2024/02/03 04:44:01;;;;;;;1.27;0.60;;;17.90;60.70;;;;;;6249497;22;20465;-85
2024/02/03 04:48:58;;;;;;;1.20;0.40;;;18.00;60.60;;;;;;6268953;22;20519;-86
2024/02/03 04:51:24;;;;;;;0.82;0.45;;;18.00;60.60;;;;;;6253183;22;20144;-85
2024/02/03 04:53:50;;;;;;;1.05;0.50;;;18.00;60.70;;;;;;6252735;22;20159;-86
2024/02/03 04:56:16;;;;;;;4.47;0.82;;;18.00;60.70;;;;;;6250699;22;20183;-85
2024/02/03 04:58:41;;;;;;;1.60;0.50;;;17.90;60.50;;;;;;6274601;22;20200;-86
2024/02/03 05:01:07;;;;;;;0.90;0.40;;;18.00;60.70;;;;;;6272611;22;20145;-86
2024/02/03 05:03:35;;;;;;;0.90;0.43;;;18.00;60.70;;;;;;6248816;22;20176;-85
2024/02/03 05:06:03;;;;;;;1.00;0.50;;;17.90;60.60;;;;;;6272365;22;20125;-85
2024/02/03 05:08:29;;;;;;;1.65;0.47;;;18.00;60.70;;;;;;6273625;22;20125;-86
2024/02/03 05:10:55;;;;;;;1.63;0.40;;;18.00;60.70;;;;;;6248506;22;20180;-85
2024/02/03 05:13:21;;;;;;;1.67;0.50;;;17.90;60.70;;;;;;6247737;22;20257;-86
2024/02/03 05:18:16;;;;;;;1.65;0.75;;;17.90;60.50;;;;;;6149356;23;20190;-85
2024/02/03 05:20:42;;;;;;;1.33;0.50;;;18.00;60.50;;;;;;6252990;22;20155;-86
2024/02/03 05:23:08;;;;;;;1.20;0.47;;;18.00;60.70;;;;;;6203341;23;20634;-85
2024/02/03 05:25:33;;;;;;;2.00;0.47;;;18.00;60.50;;;;;;6203040;23;20156;-85
2024/02/03 05:27:59;;;;;;;1.35;0.40;;;17.90;60.60;;;;;;6203211;23;20238;-85
2024/02/03 05:30:26;;;;;;;1.23;0.40;;;18.00;60.50;;;;;;6252759;22;20220;-85
2024/02/03 05:32:52;;;;;;;1.65;0.65;;;18.00;60.60;;;;;;6202933;22;20183;-85
2024/02/03 05:35:18;;;;;;;1.13;0.47;;;18.00;60.60;;;;;;6226563;23;20205;-86
2024/02/03 05:37:44;;;;;;;0.57;0.40;;;18.00;60.60;;;;;;6202805;23;20148;-85
2024/02/03 05:40:10;;;;;;;0.57;0.30;;;17.90;60.40;;;;;;6202730;23;20574;-86
2024/02/03 05:42:36;;;;;;;3.55;0.65;;;18.00;60.60;;;;;;6202476;22;20216;-85
2024/02/03 05:45:01;;;;;;;0.80;0.40;;;18.00;60.60;;;;;;6252669;22;20143;-88
2024/02/03 05:47:27;;;;;;;1.52;0.40;;;18.00;60.50;;;;;;6252701;22;20135;-85
2024/02/03 05:49:53;;;;;;;0.52;0.40;;;18.00;60.60;;;;;;6201701;23;20472;-86
2024/02/03 05:52:19;;;;;;;0.93;0.43;;;17.90;60.50;;;;;;6199597;23;20163;-88
2024/02/03 05:54:44;;;;;;;2.13;0.50;;;17.90;60.50;;;;;;6228026;22;20131;-86
2024/02/03 05:57:12;;;;;;;3.28;0.70;;;18.00;60.50;;;;;;6201373;23;20144;-86
2024/02/03 05:59:38;;;;;;;1.67;0.50;;;17.90;60.60;;;;;;6227292;22;20195;-85
2024/02/03 06:02:03;;;;;;;0.90;0.50;;;17.90;60.50;;;;;;6227523;22;20136;-85
2024/02/03 06:04:29;;;;;;;0.73;0.50;;;17.90;60.50;;;;;;6219247;22;20208;-86
2024/02/03 06:14:49;;;;;;;1.05;0.50;;;17.90;60.60;;;;;;6148774;23;20259;-84
2024/02/03 06:17:16;;;;;;;1.58;0.38;;;18.00;60.60;;;;;;6254348;22;20159;-85
2024/02/03 06:19:42;;;;;;;0.93;0.52;;;17.90;60.40;;;;;;6278924;22;20158;-84
2024/02/03 06:22:07;;;;;;;0.40;0.40;;;18.00;60.50;;;;;;6253600;22;20132;-85
2024/02/03 06:24:33;;;;;;;1.23;0.38;;;18.00;60.50;;;;;;6253983;22;20152;-85
2024/02/03 06:26:59;;;;;;;0.43;0.30;;;18.00;60.60;;;;;;6253762;22;20136;-84
2024/02/03 06:29:25;;;;;;;1.45;0.57;;;17.90;60.80;;;;;;6253699;22;20167;-85
2024/02/03 06:31:52;;;;;;;0.93;0.40;;;17.90;60.60;;;;;;6254878;22;20136;-85
2024/02/03 06:34:22;;;;;;;1.10;0.47;;;18.00;60.60;;;;;;6228997;23;20163;-84
2024/02/03 06:36:47;;;;;;;1.13;0.40;;;17.90;60.50;;;;;;6177734;22;20158;-85
2024/02/03 06:39:14;;;;;;;1.35;0.52;;;18.00;60.50;;;;;;6229284;23;20152;-85
2024/02/03 06:41:40;;;;;;;0.85;0.47;;;17.90;60.50;;;;;;6228873;23;20175;-85
2024/02/03 06:44:06;;;;;;;4.35;0.50;;;17.90;60.50;;;;;;6254101;22;20139;-85
2024/02/03 06:46:32;;;;;;;1.80;0.50;;;18.00;60.60;;;;;;6254408;22;20567;-85
2024/02/03 06:48:58;;;;;;;1.00;0.50;;;18.00;60.60;;;;;;6150143;22;20182;-87
2024/02/03 06:51:24;;;;;;;1.45;0.60;;;17.90;60.50;;;;;;6254142;22;20147;-86
2024/02/03 06:53:50;;;;;;;1.90;0.57;;;17.90;60.30;;;;;;6227879;22;20463;-85
2024/02/03 06:56:19;;;;;;;1.73;0.50;;;18.00;60.30;;;;;;6253742;22;20143;-85
2024/02/03 06:58:46;;;;;;;2.72;0.47;;;18.00;60.30;;;;;;6176502;23;20234;-87
2024/02/03 07:01:12;;;;;;;1.17;0.40;;;17.90;60.40;;;;;;6253148;22;20221;-86
2024/02/03 07:03:38;;;;;;;0.80;0.40;;;18.00;60.50;;;;;;6228672;23;20144;-85
2024/02/03 07:06:04;;;;;;;0.93;0.45;;;17.90;60.30;;;;;;6227578;22;20204;-84
2024/02/03 07:08:30;;;;;;;0.35;0.30;;;17.90;60.40;;;;;;6228521;23;20205;-85
2024/02/03 07:10:56;;;;;;;0.77;0.43;;;17.90;60.30;;;;;;6254634;22;20640;-85
2024/02/03 07:13:22;;;;;;;0.65;0.50;;;17.90;60.30;;;;;;6255303;22;20155;-85
2024/02/03 07:15:50;;;;;;;0.70;0.40;;;17.90;60.40;;;;;;6255904;22;20151;-85
2024/02/03 07:18:15;;;;;;;1.15;0.60;;;17.90;60.30;;;;;;6229690;23;20158;-85
2024/02/03 07:20:41;;;;;;;1.08;0.45;;;17.90;60.30;;;;;;6255811;22;20501;-85
2024/02/03 07:23:07;;;;;;;1.48;0.40;;;18.00;60.30;;;;;;6255832;22;20580;-85
2024/02/03 07:25:33;;;;;;;1.58;0.40;;;17.90;60.30;;;;;;6230424;23;20174;-86
2024/02/03 07:28:03;;;;;;;0.43;0.40;;;17.90;60.20;;;;;;6153368;22;20160;-85
2024/02/03 07:30:34;;;;;;;0.63;0.40;;;18.00;60.50;;;;;;6228683;23;20190;-85
2024/02/03 07:33:06;;;;;;;1.50;0.40;;;17.90;60.30;;;;;;6205151;22;20158;-85
2024/02/03 07:35:32;;;;;;;1.50;0.60;;;17.90;60.30;;;;;;6206332;22;20158;-85
2024/02/03 07:38:02;;;;;;;0.60;0.40;;;17.90;60.30;;;;;;6255962;22;20135;-85
2024/02/03 07:40:31;;;;;;;0.65;0.40;;;17.90;60.20;;;;;;6204559;23;20159;-85
2024/02/03 07:43:01;;;;;;;1.23;0.50;;;17.90;60.30;;;;;;6179678;22;20155;-85
2024/02/03 07:45:30;;;;;;;0.40;0.40;;;17.90;60.30;;;;;;6204380;22;20177;-85
2024/02/03 07:47:56;;;;;;;1.20;0.50;;;18.00;60.60;;;;;;6229808;22;20233;-85
2024/02/03 07:50:22;;;;;;;1.38;0.68;;;17.90;60.30;;;;;;6255855;22;20652;-86
2024/02/03 07:52:47;;;;;;;1.05;0.38;;;17.90;60.50;;;;;;6254977;22;20575;-86
2024/02/03 07:55:16;;;;;;;1.90;0.50;;;17.90;60.40;;;;;;6255264;22;20466;-85
2024/02/03 07:57:41;;;;;;;0.90;0.57;;;17.90;60.10;;;;;;6230182;23;20208;-86
2024/02/03 08:00:08;;;;;;;1.02;0.40;;;18.00;60.10;;;;;;6255099;22;20140;-86
2024/02/03 08:02:33;;;;;;;0.40;0.30;;;18.00;60.00;;;;;;6255734;22;20152;-86
2024/02/03 08:05:04;;;;;;;0.95;0.40;;;18.00;59.90;;;;;;6255385;22;20218;-86
2024/02/03 08:07:29;;;;;;;0.85;0.40;;;18.00;59.90;;;;;;6224574;22;20203;-85
2024/02/03 08:09:55;;;;;;;0.70;0.43;;;18.00;59.70;;;;;;6276120;22;20164;-85
2024/02/03 08:12:24;;;;;;;0.60;0.30;;;18.10;59.60;;;;;;6276451;22;20614;-85
2024/02/03 08:14:49;;;;;;;2.47;0.30;;;18.20;59.10;;;;;;6224580;22;20156;-86
2024/02/03 08:17:17;;;;;;;0.68;0.40;;;18.20;59.00;;;;;;6250823;22;20472;-85
2024/02/03 08:19:42;;;;;;;0.47;0.40;;;18.20;58.60;;;;;;6249971;22;20228;-86
2024/02/03 08:22:08;;;;;;;0.65;0.40;;;18.30;59.00;;;;;;6250666;22;20172;-85
2024/02/03 08:24:35;;;;;;;1.60;0.45;;;18.30;59.00;;;;;;6276666;22;20573;-86
2024/02/03 08:27:01;;;;;;;0.70;0.50;;;18.30;58.70;;;;;;6250373;22;20160;-86
2024/02/03 08:29:27;;;;;;;0.82;0.40;;;18.30;58.80;;;;;;6276625;22;20207;-87
2024/02/03 08:31:56;;;;;;;0.80;0.40;;;18.30;58.50;;;;;;6276614;22;20145;-86
2024/02/03 08:34:23;;;;;;;0.95;0.60;;;18.30;58.50;;;;;;6224898;22;20160;-86
2024/02/03 08:36:49;;;;;;;0.63;0.40;;;18.30;58.40;;;;;;6249735;22;20160;-86
2024/02/03 08:39:15;;;;;;;1.27;0.38;;;18.30;58.90;;;;;;6250810;22;20153;-86
2024/02/03 08:41:41;;;;;;;1.67;0.40;;;18.40;58.50;;;;;;6276253;22;20125;-86
2024/02/03 08:44:07;;;;;;;2.05;0.35;;;18.30;58.50;;;;;;6275248;22;20141;-86
2024/02/03 08:46:32;;;;;;;0.70;0.40;;;18.40;58.80;;;;;;6250468;22;20243;-88
2024/02/03 08:49:01;;;;;;;4.15;0.40;;;18.30;58.60;;;;;;6275622;22;20441;-87
2024/02/03 08:51:57;;;;;;;0.63;0.45;;;18.40;58.20;;;;;;6251578;22;20141;-87
2024/02/03 08:54:29;;;;;;;0.55;0.30;;;18.40;58.70;;;;;;6214085;23;20149;-86
2024/02/03 08:57:06;;;;;;;0.82;0.40;;;18.40;58.10;;;;;;6195595;23;20154;-87
2024/02/03 08:59:58;;;;;;;1.38;0.40;;;18.40;58.60;;;;;;6220032;23;20156;-87
2024/02/03 09:02:30;;;;;;;3.83;0.60;;;18.50;59.20;;;;;;6220573;23;20145;-86
2024/02/03 09:05:07;;;;;;;2.60;0.30;;;18.50;59.80;;;;;;6136669;23;20156;-86
2024/02/03 09:07:47;;;;;;;0.75;0.57;;;18.60;59.30;;;;;;6044343;23;20205;-86
2024/02/03 09:10:13;;;;;;;1.70;0.40;;;18.60;59.00;;;;;;6023284;23;20303;-85
2024/02/03 09:12:40;;;;;;;1.58;0.50;;;18.60;58.20;;;;;;6044084;23;20194;-86
2024/02/03 09:15:10;;;;;;;1.17;0.45;;;18.60;57.50;;;;;;6020459;23;20203;-86
2024/02/03 09:17:37;;;;;;;0.93;0.43;;;18.60;57.50;;;;;;5935157;24;20216;-85
2024/02/03 09:20:04;;;;;;;0.47;0.30;;;18.70;57.40;;;;;;5959465;24;20229;-86
2024/02/03 09:22:42;;;;;;;;;;;;;;;;;;;;;
2024/02/03 09:25:14;;;;;;;2.58;0.30;;;18.60;58.90;;;;;;5955160;24;20294;-85
2024/02/03 09:27:43;;;;;;;0.95;0.30;;;18.60;57.80;;;;;;5959281;24;20156;-86
2024/02/03 09:30:13;;;;;;;0.88;0.40;;;18.60;57.10;;;;;;5958141;24;20191;-85
2024/02/03 09:32:53;;;;;;;;;;;;;;;;;;;;;
2024/02/03 09:35:27;;;;;;;1.75;0.38;;;18.70;57.20;;;;;;5876039;24;20295;-89
2024/02/03 09:38:09;;;;;;;1.13;0.43;;;18.80;57.40;;;;;;5875535;24;20156;-87
2024/02/03 09:40:51;;;;;;;;;;;;;;;;;;;;;
2024/02/03 09:43:30;;;;;;;;;;;;;;;;;;;;;
2024/02/03 09:45:59;;;;;;;4.80;0.47;;;18.80;57.50;;;;;;5881210;24;20300;-88
2024/02/03 09:48:36;;;;;;;1.08;0.30;;;18.80;57.20;;;;;;5998435;23;20161;-87
2024/02/03 09:51:06;;;;;;;2.47;0.40;;;18.80;56.90;;;;;;6130719;23;20186;-87
2024/02/03 09:53:36;;;;;;;1.85;0.40;;;18.80;57.10;;;;;;6134304;23;20151;-87
2024/02/03 09:56:43;;;;;;;1.02;0.30;;;18.80;57.10;;;;;;6157429;23;20603;-86
2024/02/03 09:59:34;;;;;;;0.95;0.40;;;18.90;57.30;;;;;;6153725;23;20155;-88
2024/02/03 10:05:33;;;;;;;8.63;0.88;;;18.80;57.90;;;;;;6044115;23;20189;-86
2024/02/03 10:08:08;;;;;;;2.85;0.40;;;18.70;58.40;;;;;;6043902;23;20204;-86
2024/02/03 10:10:38;;;;;;;2.05;0.40;;;18.70;58.70;;;;;;6020483;23;20192;-86
2024/02/03 10:13:08;;;;;;;2.80;0.30;;;18.80;58.80;;;;;;6042612;23;20156;-87
2024/02/03 10:15:39;;;;;;;1.60;0.40;;;18.80;58.90;;;;;;6066874;23;20232;-88
2024/02/03 10:18:06;;;;;;;2.10;0.40;;;18.70;58.50;;;;;;6090543;23;20146;-87
2024/02/03 10:20:32;;;;;;;1.67;0.43;;;18.70;58.50;;;;;;6092036;23;20466;-87
2024/02/03 10:22:58;;;;;;;3.03;0.50;;;18.70;58.30;;;;;;6094916;23;20341;-87
2024/02/03 10:25:29;;;;;;;4.25;0.60;;;18.70;58.30;;;;;;6072444;23;20163;-87
2024/02/03 10:28:03;;;;;;;4.50;0.68;;;18.70;59.30;;;;;;6045063;23;20321;-87
2024/02/03 10:30:31;;;;;;;3.08;0.40;;;18.70;59.00;;;;;;6045191;23;20193;-86
2024/02/03 10:33:04;;;;;;;2.00;0.50;;;18.70;58.50;;;;;;6070745;23;20251;-85
2024/02/03 10:35:33;;;;;;;2.67;0.68;;;18.70;59.20;;;;;;6111521;23;20630;-86
2024/02/03 10:38:03;;;;;;;4.38;0.50;;;18.80;58.90;;;;;;6079726;23;20195;-87
2024/02/03 10:40:34;;;;;;;7.20;0.52;;;18.80;58.50;;;;;;6099718;23;20160;-86
2024/02/03 10:43:01;;;;;;;4.35;0.80;;;18.80;59.20;;;;;;6174818;23;20149;-85
2024/02/03 10:45:28;;;;;;;5.45;0.98;;;18.80;58.30;;;;;;6198793;23;20138;-87
2024/02/03 10:47:56;;;;;;;3.60;0.70;;;18.70;58.10;;;;;;6223388;23;20160;-87
2024/02/03 10:50:35;;;;;;;3.40;0.52;;;18.80;58.60;;;;;;6225658;23;20177;-86
2024/02/03 10:53:05;;;;;;;6.60;0.73;;;18.90;58.50;;;;;;6231210;23;20584;-87
2024/02/03 10:55:42;;;;;;;5.22;0.65;;;18.80;58.50;;;;;;6233586;23;20150;-86
2024/02/03 10:58:10;;;;;;;7.30;1.00;;;18.80;58.90;;;;;;6213283;22;20152;-86
2024/02/03 11:00:43;;;;;;;3.15;0.52;;;18.90;58.40;;;;;;6261460;22;20148;-86
2024/02/03 11:03:11;;;;;;;3.97;0.68;;;18.90;58.00;;;;;;6237975;22;20155;-85
2024/02/03 11:05:39;;;;;;;8.93;0.88;;;18.90;58.70;;;;;;6262193;22;20225;-85
2024/02/03 11:08:12;;;;;;;1.58;0.50;;;18.90;58.90;;;;;;6262935;22;20238;-86
2024/02/03 11:10:41;;;;;;;4.03;0.50;;;18.90;58.40;;;;;;6235203;22;20181;-86
2024/02/03 11:13:24;;;;;;;3.03;0.40;;;18.90;58.80;;;;;;6262896;22;20149;-85
2024/02/03 11:16:07;;;;;;;7.47;0.60;;;18.90;58.00;;;;;;6196014;23;20301;-85
2024/02/03 11:18:49;;;;;;;0.88;0.40;;;18.90;58.30;;;;;;6107821;23;20168;-85
2024/02/03 11:21:20;;;;;;;1.48;0.52;;;18.90;59.00;;;;;;6027375;23;20498;-85
2024/02/03 11:23:51;;;;;;;3.20;0.50;;;18.90;58.10;;;;;;6025801;23;20166;-86
2024/02/03 11:26:18;;;;;;;2.20;0.40;;;19.00;58.10;;;;;;6020003;23;20150;-86
2024/02/03 11:28:48;;;;;;;2.72;0.40;;;19.00;58.50;;;;;;6039296;23;20168;-85
2024/02/03 11:31:22;;;;;;;0.77;0.35;;;19.00;58.00;;;;;;5991335;23;20292;-87
2024/02/03 11:33:49;;;;;;;0.98;0.40;;;19.00;57.80;;;;;;5991800;24;20156;-86
2024/02/03 12:04:35;;;;;;;2.63;0.50;;;19.00;58.50;;;;;;6131125;23;20200;-86
2024/02/03 12:07:01;;;;;;;2.45;0.47;;;19.00;58.50;;;;;;6232554;23;20140;-86
2024/02/03 12:09:33;;;;;;;4.25;0.60;;;19.00;59.50;;;;;;6182989;23;20180;-86
2024/02/03 12:12:02;;;;;;;2.47;0.52;;;18.90;59.60;;;;;;6183553;23;20159;-87
2024/02/03 12:14:31;;;;;;;6.22;0.45;;;18.90;59.60;;;;;;6179519;23;20198;-85
2024/02/03 12:16:59;;;;;;;4.28;0.80;;;18.90;59.70;;;;;;6206264;23;20137;-86
2024/02/03 12:19:25;;;;;;;3.03;0.45;;;18.90;59.70;;;;;;6181621;23;20583;-86
2024/02/03 12:21:55;;;;;;;2.78;0.65;;;18.90;58.50;;;;;;6205506;23;20136;-86
2024/02/03 12:24:25;;;;;;;1.25;0.40;;;18.90;58.20;;;;;;6206170;23;20132;-86
2024/02/03 12:26:51;;;;;;;2.88;0.35;;;19.00;57.80;;;;;;6155070;23;20231;-86
2024/02/03 12:29:21;;;;;;;1.30;0.50;;;19.00;58.20;;;;;;6231616;23;20139;-85
2024/02/03 12:31:51;;;;;;;2.22;0.60;;;19.00;57.80;;;;;;6155395;23;20156;-86
2024/02/03 12:34:16;;;;;;;0.95;0.40;;;19.00;58.50;;;;;;6205755;23;20148;-85
2024/02/03 12:36:42;;;;;;;5.15;0.70;;;19.00;59.20;;;;;;6206348;23;20225;-86
2024/02/03 12:39:10;;;;;;;2.10;0.47;;;18.90;59.90;;;;;;6203013;23;20630;-85
2024/02/03 12:41:35;;;;;;;1.98;0.40;;;18.90;59.60;;;;;;6179104;23;20143;-87
2024/02/03 12:44:01;;;;;;;1.45;0.40;;;18.90;59.10;;;;;;6203778;23;20211;-85
2024/02/03 12:46:32;;;;;;;0.50;0.30;;;18.90;58.80;;;;;;6204396;23;20144;-87
2024/02/03 12:49:03;;;;;;;0.98;0.40;;;18.90;59.00;;;;;;6152632;23;20176;-86
2024/02/03 12:51:34;;;;;;;2.17;0.40;;;18.90;58.90;;;;;;6156551;23;20159;-86
2024/02/03 12:53:59;;;;;;;1.55;0.70;;;18.90;59.40;;;;;;6229754;23;20512;-86
2024/02/03 12:56:38;;;;;;;3.55;0.40;;;18.90;59.20;;;;;;6203952;23;20144;-86
2024/02/03 12:59:07;;;;;;;2.45;0.45;;;18.90;59.90;;;;;;6226495;23;20128;-86
2024/02/03 13:02:01;;;;;;;3.58;0.60;;;18.90;59.60;;;;;;6203620;23;20144;-87
2024/02/03 13:04:32;;;;;;;0.63;0.30;;;18.80;60.00;;;;;;6131867;23;20493;-86
2024/02/03 13:06:58;;;;;;;3.10;0.30;;;18.90;60.80;;;;;;6175587;23;20141;-85
2024/02/03 13:09:26;;;;;;;1.63;0.32;;;18.90;60.90;;;;;;6202251;23;20179;-87
2024/02/03 13:11:57;;;;;;;2.42;0.50;;;18.80;59.80;;;;;;6202560;23;20426;-85
2024/02/03 13:14:23;;;;;;;2.75;0.57;;;18.80;60.10;;;;;;6174996;23;20524;-86
2024/02/03 13:16:49;;;;;;;3.55;0.43;;;18.80;60.90;;;;;;6200206;23;20148;-87
2024/02/03 13:19:17;;;;;;;2.20;0.45;;;18.80;61.50;;;;;;6175228;23;20140;-88
2024/02/03 13:21:43;;;;;;;2.38;0.55;;;18.80;61.20;;;;;;6200239;23;20538;-87
2024/02/03 13:24:24;;;;;;;;;;;;;;;;;;;;;
2024/02/03 13:26:52;;;;;;;2.83;0.30;;;18.90;59.50;;;;;;6198941;23;20239;-85
2024/02/03 13:29:21;;;;;;;0.65;0.30;;;19.00;58.60;;;;;;6201867;23;20145;-85
2024/02/03 13:31:56;;;;;;;6.13;0.40;;;18.90;58.50;;;;;;6202674;23;20563;-87
2024/02/03 13:34:23;;;;;;;2.45;0.60;;;19.00;59.70;;;;;;6227318;23;20148;-86
2024/02/03 13:36:54;;;;;;;1.58;0.50;;;19.00;59.30;;;;;;6200299;23;20155;-85
2024/02/03 13:39:25;;;;;;;0.70;0.28;;;19.00;59.60;;;;;;6150260;23;20152;-87
2024/02/03 13:41:51;;;;;;;3.47;0.60;;;19.00;59.30;;;;;;6149734;23;20259;-87
2024/02/03 13:44:20;;;;;;;4.18;0.70;;;19.00;59.50;;;;;;6226825;23;20568;-86
2024/02/03 13:46:47;;;;;;;3.90;0.55;;;19.00;59.10;;;;;;6149726;23;20162;-85
2024/02/03 13:49:16;;;;;;;4.05;0.50;;;19.00;59.20;;;;;;6200766;23;20133;-87
2024/02/03 13:51:44;;;;;;;0.50;0.30;;;18.90;59.10;;;;;;6200827;23;20141;-87
2024/02/03 13:54:10;;;;;;;0.85;0.40;;;19.00;59.30;;;;;;6199787;23;20133;-87
2024/02/03 13:56:36;;;;;;;1.50;0.40;;;18.90;59.70;;;;;;6175696;23;20144;-86
2024/02/03 13:59:03;;;;;;;4.63;0.40;;;18.90;59.10;;;;;;6199997;23;20220;-86
2024/02/03 14:01:29;;;;;;;0.57;0.20;;;19.00;60.00;;;;;;6200943;23;20190;-86
2024/02/03 14:03:55;;;;;;;2.92;0.38;;;18.90;59.50;;;;;;6245952;23;20197;-87
2024/02/03 14:06:26;;;;;;;3.80;0.40;;;18.90;59.10;;;;;;6189740;23;20200;-86
2024/02/03 14:08:54;;;;;;;0.77;0.30;;;18.90;60.00;;;;;;6140679;23;20161;-86